Terminal Aerodrome Forecast
Issued by NWS

Home | Current Version | Previous Version | Text Only | Print | Product List | Glossary On
Versions: 1 2 3 4 5 6 7 8 9 10 11 12 13 14 15 16 17 18
000
FTUS43 KMQT 211100
TAFIWD
TAF
KIWD 211137Z 2112/2212 18010G20KT P6SM OVC015
     FM211900 17010G20KT 3SM -SN OVC010
     FM220500 16013G23KT P6SM OVC015
      AMD LTD TO CLD VIS AND WIND=

USA.gov is the U.S. government's official web portal to all federal, state and local government web resources and services.